sensor_id;sensor_type;location;lat;lon;timestamp;P1;durP1;ratioP1;P2;durP2;ratioP2
23115;SDS011;11727;52.134;5.052;2023-04-07T00:01:22;5.70;;;2.22;;
23115;SDS011;11727;52.134;5.052;2023-04-07T00:03:48;5.43;;;1.98;;
23115;SDS011;11727;52.134;5.052;2023-04-07T00:06:13;6.25;;;2.83;;
23115;SDS011;11727;52.134;5.052;2023-04-07T00:08:39;6.70;;;2.85;;
23115;SDS011;11727;52.134;5.052;2023-04-07T00:11:05;9.73;;;3.22;;
23115;SDS011;11727;52.134;5.052;2023-04-07T00:13:32;8.40;;;3.00;;
23115;SDS011;11727;52.134;5.052;2023-04-07T00:15:58;8.25;;;3.35;;
23115;SDS011;11727;52.134;5.052;2023-04-07T00:18:23;10.50;;;3.83;;
23115;SDS011;11727;52.134;5.052;2023-04-07T00:20:49;8.90;;;3.83;;
23115;SDS011;11727;52.134;5.052;2023-04-07T00:23:15;17.33;;;3.85;;
23115;SDS011;11727;52.134;5.052;2023-04-07T00:25:40;9.15;;;3.15;;
23115;SDS011;11727;52.134;5.052;2023-04-07T00:28:06;6.75;;;2.50;;
23115;SDS011;11727;52.134;5.052;2023-04-07T00:30:31;10.93;;;2.80;;
23115;SDS011;11727;52.134;5.052;2023-04-07T00:32:57;8.52;;;2.72;;
23115;SDS011;11727;52.134;5.052;2023-04-07T00:35:23;14.70;;;3.25;;
23115;SDS011;11727;52.134;5.052;2023-04-07T00:37:48;10.50;;;3.30;;
23115;SDS011;11727;52.134;5.052;2023-04-07T00:40:14;12.80;;;3.83;;
23115;SDS011;11727;52.134;5.052;2023-04-07T00:42:39;8.93;;;3.20;;
23115;SDS011;11727;52.134;5.052;2023-04-07T00:45:05;9.05;;;3.13;;
23115;SDS011;11727;52.134;5.052;2023-04-07T00:47:31;17.67;;;4.43;;
23115;SDS011;11727;52.134;5.052;2023-04-07T00:49:57;10.35;;;3.78;;
23115;SDS011;11727;52.134;5.052;2023-04-07T00:52:23;18.45;;;3.55;;
23115;SDS011;11727;52.134;5.052;2023-04-07T00:54:53;10.15;;;3.15;;
23115;SDS011;11727;52.134;5.052;2023-04-07T00:57:20;11.63;;;4.20;;
23115;SDS011;11727;52.134;5.052;2023-04-07T00:59:47;9.00;;;3.50;;
23115;SDS011;11727;52.134;5.052;2023-04-07T01:02:17;8.18;;;3.10;;
23115;SDS011;11727;52.134;5.052;2023-04-07T01:05:49;10.85;;;3.30;;
23115;SDS011;11727;52.134;5.052;2023-04-07T01:11:02;11.20;;;4.00;;
23115;SDS011;11727;52.134;5.052;2023-04-07T01:13:35;15.50;;;3.83;;
23115;SDS011;11727;52.134;5.052;2023-04-07T01:16:08;5.57;;;2.85;;
23115;SDS011;11727;52.134;5.052;2023-04-07T01:18:37;12.77;;;3.45;;
23115;SDS011;11727;52.134;5.052;2023-04-07T01:21:08;12.55;;;3.22;;
23115;SDS011;11727;52.134;5.052;2023-04-07T01:26:31;5.85;;;2.50;;
23115;SDS011;11727;52.134;5.052;2023-04-07T01:31:43;7.03;;;2.15;;
23115;SDS011;11727;52.134;5.052;2023-04-07T01:34:10;10.30;;;2.90;;
23115;SDS011;11727;52.134;5.052;2023-04-07T01:36:37;8.70;;;2.77;;
23115;SDS011;11727;52.134;5.052;2023-04-07T01:39:03;4.60;;;1.92;;
23115;SDS011;11727;52.134;5.052;2023-04-07T01:41:30;7.75;;;2.83;;
23115;SDS011;11727;52.134;5.052;2023-04-07T01:43:57;9.93;;;2.72;;
23115;SDS011;11727;52.134;5.052;2023-04-07T01:48:51;8.88;;;2.30;;
23115;SDS011;11727;52.134;5.052;2023-04-07T01:51:17;7.80;;;2.33;;
23115;SDS011;11727;52.134;5.052;2023-04-07T01:53:44;5.05;;;1.95;;
23115;SDS011;11727;52.134;5.052;2023-04-07T01:56:11;6.95;;;2.15;;
23115;SDS011;11727;52.134;5.052;2023-04-07T01:58:37;5.18;;;1.73;;
23115;SDS011;11727;52.134;5.052;2023-04-07T02:01:02;9.13;;;2.20;;
23115;SDS011;11727;52.134;5.052;2023-04-07T02:03:30;6.95;;;2.10;;
23115;SDS011;11727;52.134;5.052;2023-04-07T02:06:05;2.63;;;1.67;;
23115;SDS011;11727;52.134;5.052;2023-04-07T02:08:32;10.45;;;2.17;;
23115;SDS011;11727;52.134;5.052;2023-04-07T02:11:02;5.22;;;1.75;;
23115;SDS011;11727;52.134;5.052;2023-04-07T02:13:31;8.15;;;1.95;;
23115;SDS011;11727;52.134;5.052;2023-04-07T02:15:59;7.90;;;2.33;;
23115;SDS011;11727;52.134;5.052;2023-04-07T02:18:26;6.32;;;1.55;;
23115;SDS011;11727;52.134;5.052;2023-04-07T02:20:54;8.20;;;1.88;;
23115;SDS011;11727;52.134;5.052;2023-04-07T02:23:20;6.00;;;1.42;;
23115;SDS011;11727;52.134;5.052;2023-04-07T02:25:46;11.05;;;2.08;;
23115;SDS011;11727;52.134;5.052;2023-04-07T02:28:11;9.30;;;2.22;;
23115;SDS011;11727;52.134;5.052;2023-04-07T02:30:37;3.70;;;1.85;;
23115;SDS011;11727;52.134;5.052;2023-04-07T02:33:03;8.68;;;1.88;;
23115;SDS011;11727;52.134;5.052;2023-04-07T02:35:29;8.45;;;1.60;;
23115;SDS011;11727;52.134;5.052;2023-04-07T02:37:55;9.52;;;1.40;;
23115;SDS011;11727;52.134;5.052;2023-04-07T02:40:21;6.53;;;2.03;;
23115;SDS011;11727;52.134;5.052;2023-04-07T02:42:46;7.03;;;1.33;;
23115;SDS011;11727;52.134;5.052;2023-04-07T02:45:12;8.27;;;1.63;;
23115;SDS011;11727;52.134;5.052;2023-04-07T02:47:38;6.75;;;1.58;;
23115;SDS011;11727;52.134;5.052;2023-04-07T02:50:03;8.43;;;2.25;;
23115;SDS011;11727;52.134;5.052;2023-04-07T02:52:30;13.30;;;2.33;;
23115;SDS011;11727;52.134;5.052;2023-04-07T02:54:55;14.07;;;2.15;;
23115;SDS011;11727;52.134;5.052;2023-04-07T02:57:21;5.00;;;1.90;;
23115;SDS011;11727;52.134;5.052;2023-04-07T02:59:46;9.65;;;1.88;;
23115;SDS011;11727;52.134;5.052;2023-04-07T03:02:12;6.28;;;1.60;;
23115;SDS011;11727;52.134;5.052;2023-04-07T03:04:38;9.13;;;1.65;;
23115;SDS011;11727;52.134;5.052;2023-04-07T03:07:03;4.85;;;1.42;;
23115;SDS011;11727;52.134;5.052;2023-04-07T03:09:29;6.00;;;2.08;;
23115;SDS011;11727;52.134;5.052;2023-04-07T03:11:55;5.90;;;2.45;;
23115;SDS011;11727;52.134;5.052;2023-04-07T03:14:21;6.00;;;1.85;;
23115;SDS011;11727;52.134;5.052;2023-04-07T03:16:46;10.55;;;1.98;;
23115;SDS011;11727;52.134;5.052;2023-04-07T03:19:15;2.53;;;1.40;;
23115;SDS011;11727;52.134;5.052;2023-04-07T03:21:40;6.53;;;1.52;;
23115;SDS011;11727;52.134;5.052;2023-04-07T03:24:06;8.70;;;2.00;;
23115;SDS011;11727;52.134;5.052;2023-04-07T03:26:32;10.85;;;2.38;;
23115;SDS011;11727;52.134;5.052;2023-04-07T03:28:58;13.65;;;2.00;;
23115;SDS011;11727;52.134;5.052;2023-04-07T03:31:23;10.40;;;2.30;;
23115;SDS011;11727;52.134;5.052;2023-04-07T03:33:49;8.18;;;1.95;;
23115;SDS011;11727;52.134;5.052;2023-04-07T03:36:15;3.67;;;1.67;;
23115;SDS011;11727;52.134;5.052;2023-04-07T03:38:45;13.18;;;2.38;;
23115;SDS011;11727;52.134;5.052;2023-04-07T03:41:11;9.65;;;2.08;;
23115;SDS011;11727;52.134;5.052;2023-04-07T03:43:37;7.30;;;2.88;;
23115;SDS011;11727;52.134;5.052;2023-04-07T03:46:02;11.82;;;2.50;;
23115;SDS011;11727;52.134;5.052;2023-04-07T03:48:28;9.30;;;2.03;;
23115;SDS011;11727;52.134;5.052;2023-04-07T03:50:54;12.30;;;2.20;;
23115;SDS011;11727;52.134;5.052;2023-04-07T03:53:20;5.72;;;2.83;;
23115;SDS011;11727;52.134;5.052;2023-04-07T03:55:45;9.35;;;3.10;;
23115;SDS011;11727;52.134;5.052;2023-04-07T03:58:11;9.73;;;2.75;;
23115;SDS011;11727;52.134;5.052;2023-04-07T04:00:38;9.07;;;2.83;;
23115;SDS011;11727;52.134;5.052;2023-04-07T04:03:03;8.75;;;2.88;;
23115;SDS011;11727;52.134;5.052;2023-04-07T04:05:29;8.93;;;2.78;;
23115;SDS011;11727;52.134;5.052;2023-04-07T04:07:55;7.78;;;3.17;;
23115;SDS011;11727;52.134;5.052;2023-04-07T04:10:20;10.88;;;3.08;;
23115;SDS011;11727;52.134;5.052;2023-04-07T04:12:46;10.30;;;2.92;;
23115;SDS011;11727;52.134;5.052;2023-04-07T04:15:13;6.55;;;2.42;;
23115;SDS011;11727;52.134;5.052;2023-04-07T04:17:39;11.43;;;3.20;;
23115;SDS011;11727;52.134;5.052;2023-04-07T04:20:05;5.57;;;2.22;;
23115;SDS011;11727;52.134;5.052;2023-04-07T04:22:31;8.40;;;2.65;;
23115;SDS011;11727;52.134;5.052;2023-04-07T04:24:57;7.80;;;2.30;;
23115;SDS011;11727;52.134;5.052;2023-04-07T04:27:23;6.28;;;2.55;;
23115;SDS011;11727;52.134;5.052;2023-04-07T04:29:49;11.43;;;3.72;;
23115;SDS011;11727;52.134;5.052;2023-04-07T04:32:14;8.27;;;3.22;;
23115;SDS011;11727;52.134;5.052;2023-04-07T04:34:41;8.60;;;3.40;;
23115;SDS011;11727;52.134;5.052;2023-04-07T04:37:07;7.82;;;3.03;;
23115;SDS011;11727;52.134;5.052;2023-04-07T04:39:33;7.50;;;3.05;;
23115;SDS011;11727;52.134;5.052;2023-04-07T04:41:59;8.90;;;4.07;;
23115;SDS011;11727;52.134;5.052;2023-04-07T04:44:26;19.60;;;4.75;;
23115;SDS011;11727;52.134;5.052;2023-04-07T04:46:51;9.80;;;3.65;;
23115;SDS011;11727;52.134;5.052;2023-04-07T04:49:17;12.98;;;3.55;;
23115;SDS011;11727;52.134;5.052;2023-04-07T04:51:43;10.88;;;3.97;;
23115;SDS011;11727;52.134;5.052;2023-04-07T04:54:09;8.60;;;2.90;;
23115;SDS011;11727;52.134;5.052;2023-04-07T04:56:35;10.55;;;2.47;;
23115;SDS011;11727;52.134;5.052;2023-04-07T04:59:01;5.78;;;2.60;;
23115;SDS011;11727;52.134;5.052;2023-04-07T05:01:27;7.93;;;2.85;;
23115;SDS011;11727;52.134;5.052;2023-04-07T05:03:53;9.00;;;2.50;;
23115;SDS011;11727;52.134;5.052;2023-04-07T05:06:18;8.73;;;2.45;;
23115;SDS011;11727;52.134;5.052;2023-04-07T05:08:44;9.75;;;2.40;;
23115;SDS011;11727;52.134;5.052;2023-04-07T05:11:10;4.15;;;2.22;;
23115;SDS011;11727;52.134;5.052;2023-04-07T05:13:36;14.15;;;3.08;;
23115;SDS011;11727;52.134;5.052;2023-04-07T05:16:02;16.85;;;2.70;;
23115;SDS011;11727;52.134;5.052;2023-04-07T05:18:27;7.07;;;2.58;;
23115;SDS011;11727;52.134;5.052;2023-04-07T05:20:53;11.18;;;2.30;;
23115;SDS011;11727;52.134;5.052;2023-04-07T05:23:18;9.50;;;2.55;;
23115;SDS011;11727;52.134;5.052;2023-04-07T05:25:44;10.23;;;1.88;;
23115;SDS011;11727;52.134;5.052;2023-04-07T05:28:10;3.92;;;2.08;;
23115;SDS011;11727;52.134;5.052;2023-04-07T05:30:35;10.23;;;2.60;;
23115;SDS011;11727;52.134;5.052;2023-04-07T05:33:01;8.02;;;2.78;;
23115;SDS011;11727;52.134;5.052;2023-04-07T05:35:26;6.32;;;2.58;;
23115;SDS011;11727;52.134;5.052;2023-04-07T05:37:52;7.00;;;2.22;;
23115;SDS011;11727;52.134;5.052;2023-04-07T05:40:18;8.35;;;2.03;;
23115;SDS011;11727;52.134;5.052;2023-04-07T05:42:44;9.60;;;2.38;;
23115;SDS011;11727;52.134;5.052;2023-04-07T05:45:10;9.32;;;2.53;;
23115;SDS011;11727;52.134;5.052;2023-04-07T05:47:35;8.80;;;2.20;;
23115;SDS011;11727;52.134;5.052;2023-04-07T05:50:01;7.13;;;1.42;;
23115;SDS011;11727;52.134;5.052;2023-04-07T05:52:27;5.22;;;1.55;;
23115;SDS011;11727;52.134;5.052;2023-04-07T05:54:52;1.88;;;1.20;;
23115;SDS011;11727;52.134;5.052;2023-04-07T05:57:18;9.85;;;2.28;;
23115;SDS011;11727;52.134;5.052;2023-04-07T05:59:43;3.92;;;1.70;;
23115;SDS011;11727;52.134;5.052;2023-04-07T06:02:09;4.68;;;2.30;;
23115;SDS011;11727;52.134;5.052;2023-04-07T06:04:35;5.05;;;1.50;;
23115;SDS011;11727;52.134;5.052;2023-04-07T06:07:01;3.17;;;1.10;;
23115;SDS011;11727;52.134;5.052;2023-04-07T06:09:27;3.90;;;1.52;;
23115;SDS011;11727;52.134;5.052;2023-04-07T06:11:52;6.53;;;2.10;;
23115;SDS011;11727;52.134;5.052;2023-04-07T06:14:18;4.00;;;1.33;;
23115;SDS011;11727;52.134;5.052;2023-04-07T06:16:43;11.23;;;2.47;;
23115;SDS011;11727;52.134;5.052;2023-04-07T06:19:09;4.20;;;1.42;;
23115;SDS011;11727;52.134;5.052;2023-04-07T06:21:35;5.57;;;1.83;;
23115;SDS011;11727;52.134;5.052;2023-04-07T06:24:01;10.15;;;1.70;;
23115;SDS011;11727;52.134;5.052;2023-04-07T06:26:26;5.57;;;2.40;;
23115;SDS011;11727;52.134;5.052;2023-04-07T06:28:52;4.22;;;1.73;;
23115;SDS011;11727;52.134;5.052;2023-04-07T06:31:18;2.17;;;1.30;;
23115;SDS011;11727;52.134;5.052;2023-04-07T06:33:44;5.88;;;1.77;;
23115;SDS011;11727;52.134;5.052;2023-04-07T06:36:10;5.78;;;2.15;;
23115;SDS011;11727;52.134;5.052;2023-04-07T06:38:36;6.88;;;2.33;;
23115;SDS011;11727;52.134;5.052;2023-04-07T06:41:02;12.73;;;1.70;;
23115;SDS011;11727;52.134;5.052;2023-04-07T06:43:28;9.07;;;2.20;;
23115;SDS011;11727;52.134;5.052;2023-04-07T06:45:54;7.13;;;1.63;;
23115;SDS011;11727;52.134;5.052;2023-04-07T06:48:20;13.00;;;1.60;;
23115;SDS011;11727;52.134;5.052;2023-04-07T06:50:48;7.90;;;2.28;;
23115;SDS011;11727;52.134;5.052;2023-04-07T06:53:14;2.53;;;1.15;;
23115;SDS011;11727;52.134;5.052;2023-04-07T06:55:39;4.78;;;1.58;;
23115;SDS011;11727;52.134;5.052;2023-04-07T06:58:05;14.38;;;2.15;;
23115;SDS011;11727;52.134;5.052;2023-04-07T07:00:31;4.07;;;1.67;;
23115;SDS011;11727;52.134;5.052;2023-04-07T07:02:56;4.68;;;1.50;;
23115;SDS011;11727;52.134;5.052;2023-04-07T07:05:22;5.75;;;2.03;;
23115;SDS011;11727;52.134;5.052;2023-04-07T07:07:48;6.93;;;1.60;;
23115;SDS011;11727;52.134;5.052;2023-04-07T07:10:14;8.95;;;1.70;;
23115;SDS011;11727;52.134;5.052;2023-04-07T07:12:40;9.55;;;1.88;;
23115;SDS011;11727;52.134;5.052;2023-04-07T07:15:06;5.53;;;1.88;;
23115;SDS011;11727;52.134;5.052;2023-04-07T07:17:31;5.57;;;1.63;;
23115;SDS011;11727;52.134;5.052;2023-04-07T07:19:57;4.13;;;1.23;;
23115;SDS011;11727;52.134;5.052;2023-04-07T07:22:23;5.22;;;1.60;;
23115;SDS011;11727;52.134;5.052;2023-04-07T07:24:49;11.80;;;1.63;;
23115;SDS011;11727;52.134;5.052;2023-04-07T07:27:15;11.57;;;1.70;;
23115;SDS011;11727;52.134;5.052;2023-04-07T07:29:40;9.80;;;2.38;;
23115;SDS011;11727;52.134;5.052;2023-04-07T07:32:06;12.40;;;1.90;;
23115;SDS011;11727;52.134;5.052;2023-04-07T07:34:32;6.28;;;1.20;;
23115;SDS011;11727;52.134;5.052;2023-04-07T07:36:57;4.90;;;1.50;;
23115;SDS011;11727;52.134;5.052;2023-04-07T07:39:24;4.00;;;1.33;;
23115;SDS011;11727;52.134;5.052;2023-04-07T07:41:50;7.85;;;1.42;;
23115;SDS011;11727;52.134;5.052;2023-04-07T07:44:15;7.00;;;1.30;;
23115;SDS011;11727;52.134;5.052;2023-04-07T07:46:41;8.43;;;2.45;;
23115;SDS011;11727;52.134;5.052;2023-04-07T07:49:07;4.65;;;1.20;;
23115;SDS011;11727;52.134;5.052;2023-04-07T07:51:33;10.52;;;1.98;;
23115;SDS011;11727;52.134;5.052;2023-04-07T07:53:59;4.63;;;1.25;;
23115;SDS011;11727;52.134;5.052;2023-04-07T07:56:25;3.40;;;1.23;;
23115;SDS011;11727;52.134;5.052;2023-04-07T07:58:51;9.00;;;1.60;;
23115;SDS011;11727;52.134;5.052;2023-04-07T08:01:17;3.08;;;1.60;;
23115;SDS011;11727;52.134;5.052;2023-04-07T08:03:42;9.88;;;2.15;;
23115;SDS011;11727;52.134;5.052;2023-04-07T08:06:08;12.00;;;1.30;;
23115;SDS011;11727;52.134;5.052;2023-04-07T08:08:34;2.00;;;1.05;;
23115;SDS011;11727;52.134;5.052;2023-04-07T08:10:59;11.18;;;1.92;;
23115;SDS011;11727;52.134;5.052;2023-04-07T08:13:25;13.70;;;1.98;;
23115;SDS011;11727;52.134;5.052;2023-04-07T08:15:51;5.70;;;1.42;;
23115;SDS011;11727;52.134;5.052;2023-04-07T08:18:18;13.65;;;2.17;;
23115;SDS011;11727;52.134;5.052;2023-04-07T08:20:43;9.27;;;1.95;;
23115;SDS011;11727;52.134;5.052;2023-04-07T08:23:09;3.58;;;1.17;;
23115;SDS011;11727;52.134;5.052;2023-04-07T08:25:35;3.10;;;0.80;;
23115;SDS011;11727;52.134;5.052;2023-04-07T08:28:00;5.07;;;1.30;;
23115;SDS011;11727;52.134;5.052;2023-04-07T08:30:26;6.90;;;1.17;;
23115;SDS011;11727;52.134;5.052;2023-04-07T08:32:51;8.63;;;0.93;;
23115;SDS011;11727;52.134;5.052;2023-04-07T08:35:17;1.65;;;0.98;;
23115;SDS011;11727;52.134;5.052;2023-04-07T08:37:43;4.32;;;1.17;;
23115;SDS011;11727;52.134;5.052;2023-04-07T08:40:08;5.57;;;1.33;;
23115;SDS011;11727;52.134;5.052;2023-04-07T08:42:35;10.20;;;1.63;;
23115;SDS011;11727;52.134;5.052;2023-04-07T08:45:06;5.18;;;1.20;;
23115;SDS011;11727;52.134;5.052;2023-04-07T08:47:33;1.45;;;0.75;;
23115;SDS011;11727;52.134;5.052;2023-04-07T08:50:01;10.38;;;1.25;;
23115;SDS011;11727;52.134;5.052;2023-04-07T08:52:43;3.22;;;1.27;;
23115;SDS011;11727;52.134;5.052;2023-04-07T08:55:12;8.10;;;1.17;;
23115;SDS011;11727;52.134;5.052;2023-04-07T08:57:38;4.90;;;1.42;;
23115;SDS011;11727;52.134;5.052;2023-04-07T09:00:06;1.50;;;0.85;;
23115;SDS011;11727;52.134;5.052;2023-04-07T09:02:33;5.63;;;1.27;;
23115;SDS011;11727;52.134;5.052;2023-04-07T09:05:00;6.95;;;1.67;;
23115;SDS011;11727;52.134;5.052;2023-04-07T09:07:27;4.95;;;1.38;;
23115;SDS011;11727;52.134;5.052;2023-04-07T09:09:55;5.35;;;1.50;;
23115;SDS011;11727;52.134;5.052;2023-04-07T09:12:21;6.93;;;1.33;;
23115;SDS011;11727;52.134;5.052;2023-04-07T09:14:46;2.63;;;1.23;;
23115;SDS011;11727;52.134;5.052;2023-04-07T09:17:12;4.82;;;1.63;;
23115;SDS011;11727;52.134;5.052;2023-04-07T09:19:37;7.15;;;1.17;;
23115;SDS011;11727;52.134;5.052;2023-04-07T09:22:03;4.22;;;1.40;;
23115;SDS011;11727;52.134;5.052;2023-04-07T09:24:29;8.85;;;2.17;;
23115;SDS011;11727;52.134;5.052;2023-04-07T09:27:07;5.95;;;1.80;;
23115;SDS011;11727;52.134;5.052;2023-04-07T09:29:44;4.55;;;2.08;;
23115;SDS011;11727;52.134;5.052;2023-04-07T09:34:37;4.75;;;2.10;;
23115;SDS011;11727;52.134;5.052;2023-04-07T09:37:05;7.43;;;2.50;;
23115;SDS011;11727;52.134;5.052;2023-04-07T09:39:32;10.20;;;3.05;;
23115;SDS011;11727;52.134;5.052;2023-04-07T09:41:58;7.15;;;2.58;;
23115;SDS011;11727;52.134;5.052;2023-04-07T09:44:30;6.82;;;2.75;;
23115;SDS011;11727;52.134;5.052;2023-04-07T09:47:05;15.60;;;4.47;;
23115;SDS011;11727;52.134;5.052;2023-04-07T09:49:31;4.50;;;2.22;;
23115;SDS011;11727;52.134;5.052;2023-04-07T09:51:57;5.90;;;1.83;;
23115;SDS011;11727;52.134;5.052;2023-04-07T09:54:31;11.35;;;2.85;;
23115;SDS011;11727;52.134;5.052;2023-04-07T09:57:07;4.68;;;2.17;;
23115;SDS011;11727;52.134;5.052;2023-04-07T09:59:34;3.40;;;1.98;;
23115;SDS011;11727;52.134;5.052;2023-04-07T10:04:27;9.25;;;2.60;;
23115;SDS011;11727;52.134;5.052;2023-04-07T10:06:56;10.85;;;3.33;;
23115;SDS011;11727;52.134;5.052;2023-04-07T10:09:23;9.10;;;2.30;;
23115;SDS011;11727;52.134;5.052;2023-04-07T10:11:50;5.03;;;1.77;;
23115;SDS011;11727;52.134;5.052;2023-04-07T10:14:17;4.38;;;1.40;;
23115;SDS011;11727;52.134;5.052;2023-04-07T10:16:45;4.03;;;1.02;;
23115;SDS011;11727;52.134;5.052;2023-04-07T10:19:11;4.82;;;1.00;;
23115;SDS011;11727;52.134;5.052;2023-04-07T10:21:41;15.57;;;1.92;;
23115;SDS011;11727;52.134;5.052;2023-04-07T10:27:13;7.32;;;1.75;;
23115;SDS011;11727;52.134;5.052;2023-04-07T10:29:43;11.18;;;2.00;;
23115;SDS011;11727;52.134;5.052;2023-04-07T10:32:12;9.20;;;1.55;;
23115;SDS011;11727;52.134;5.052;2023-04-07T10:34:59;3.97;;;1.10;;
23115;SDS011;11727;52.134;5.052;2023-04-07T10:37:25;6.88;;;2.15;;
23115;SDS011;11727;52.134;5.052;2023-04-07T10:40:25;9.27;;;1.50;;
23115;SDS011;11727;52.134;5.052;2023-04-07T10:42:51;7.50;;;1.35;;
23115;SDS011;11727;52.134;5.052;2023-04-07T10:45:17;11.20;;;1.95;;
23115;SDS011;11727;52.134;5.052;2023-04-07T10:48:23;6.75;;;1.88;;
23115;SDS011;11727;52.134;5.052;2023-04-07T10:53:32;8.13;;;1.27;;
23115;SDS011;11727;52.134;5.052;2023-04-07T10:55:58;5.00;;;1.07;;
23115;SDS011;11727;52.134;5.052;2023-04-07T10:58:25;8.23;;;1.15;;
23115;SDS011;11727;52.134;5.052;2023-04-07T11:03:40;7.10;;;0.93;;
23115;SDS011;11727;52.134;5.052;2023-04-07T11:06:16;3.55;;;0.80;;
23115;SDS011;11727;52.134;5.052;2023-04-07T11:08:42;4.05;;;1.02;;
23115;SDS011;11727;52.134;5.052;2023-04-07T11:11:10;3.67;;;1.30;;
23115;SDS011;11727;52.134;5.052;2023-04-07T11:13:47;5.68;;;1.70;;
23115;SDS011;11727;52.134;5.052;2023-04-07T11:16:15;5.28;;;1.00;;
23115;SDS011;11727;52.134;5.052;2023-04-07T11:18:42;6.03;;;0.70;;
23115;SDS011;11727;52.134;5.052;2023-04-07T11:21:08;5.80;;;2.05;;
23115;SDS011;11727;52.134;5.052;2023-04-07T11:23:41;8.38;;;1.10;;
23115;SDS011;11727;52.134;5.052;2023-04-07T11:26:08;12.02;;;1.17;;
23115;SDS011;11727;52.134;5.052;2023-04-07T11:28:35;3.47;;;1.40;;
23115;SDS011;11727;52.134;5.052;2023-04-07T11:31:19;7.38;;;0.90;;
23115;SDS011;11727;52.134;5.052;2023-04-07T11:33:51;3.55;;;1.40;;
23115;SDS011;11727;52.134;5.052;2023-04-07T11:36:24;6.65;;;1.67;;
23115;SDS011;11727;52.134;5.052;2023-04-07T11:38:51;5.32;;;0.93;;
23115;SDS011;11727;52.134;5.052;2023-04-07T11:41:16;5.20;;;1.73;;
23115;SDS011;11727;52.134;5.052;2023-04-07T11:43:42;7.93;;;2.05;;
23115;SDS011;11727;52.134;5.052;2023-04-07T11:46:09;14.00;;;2.53;;
23115;SDS011;11727;52.134;5.052;2023-04-07T11:51:02;5.72;;;1.27;;
23115;SDS011;11727;52.134;5.052;2023-04-07T11:53:30;3.45;;;0.73;;
23115;SDS011;11727;52.134;5.052;2023-04-07T11:56:00;6.38;;;0.90;;
23115;SDS011;11727;52.134;5.052;2023-04-07T11:58:30;3.63;;;0.95;;
23115;SDS011;11727;52.134;5.052;2023-04-07T12:01:00;6.80;;;0.70;;
23115;SDS011;11727;52.134;5.052;2023-04-07T12:03:33;9.98;;;2.05;;
23115;SDS011;11727;52.134;5.052;2023-04-07T12:06:00;9.48;;;1.75;;
23115;SDS011;11727;52.134;5.052;2023-04-07T12:08:40;7.15;;;1.40;;
23115;SDS011;11727;52.134;5.052;2023-04-07T12:11:06;10.77;;;1.35;;
23115;SDS011;11727;52.134;5.052;2023-04-07T12:13:33;8.25;;;1.20;;
23115;SDS011;11727;52.134;5.052;2023-04-07T12:15:59;8.25;;;1.10;;
23115;SDS011;11727;52.134;5.052;2023-04-07T12:18:25;15.77;;;1.70;;
23115;SDS011;11727;52.134;5.052;2023-04-07T12:20:52;8.17;;;1.23;;
23115;SDS011;11727;52.134;5.052;2023-04-07T12:23:18;6.43;;;1.50;;
23115;SDS011;11727;52.134;5.052;2023-04-07T12:25:43;7.22;;;1.40;;
23115;SDS011;11727;52.134;5.052;2023-04-07T12:28:09;16.65;;;2.05;;
23115;SDS011;11727;52.134;5.052;2023-04-07T12:30:35;8.55;;;1.10;;
23115;SDS011;11727;52.134;5.052;2023-04-07T12:33:01;9.63;;;1.50;;
23115;SDS011;11727;52.134;5.052;2023-04-07T12:35:28;10.27;;;1.65;;
23115;SDS011;11727;52.134;5.052;2023-04-07T12:37:54;6.07;;;1.25;;
23115;SDS011;11727;52.134;5.052;2023-04-07T12:40:20;3.15;;;0.98;;
23115;SDS011;11727;52.134;5.052;2023-04-07T12:42:47;7.43;;;1.60;;
23115;SDS011;11727;52.134;5.052;2023-04-07T12:45:12;7.53;;;1.00;;
23115;SDS011;11727;52.134;5.052;2023-04-07T12:47:38;6.80;;;2.05;;
23115;SDS011;11727;52.134;5.052;2023-04-07T12:50:04;4.60;;;1.55;;
23115;SDS011;11727;52.134;5.052;2023-04-07T12:52:30;10.68;;;1.80;;
23115;SDS011;11727;52.134;5.052;2023-04-07T12:54:56;5.88;;;1.65;;
23115;SDS011;11727;52.134;5.052;2023-04-07T12:57:22;7.97;;;1.77;;
23115;SDS011;11727;52.134;5.052;2023-04-07T12:59:48;15.60;;;2.30;;
23115;SDS011;11727;52.134;5.052;2023-04-07T13:02:13;6.88;;;1.95;;
23115;SDS011;11727;52.134;5.052;2023-04-07T13:04:42;6.20;;;1.17;;
23115;SDS011;11727;52.134;5.052;2023-04-07T13:07:16;6.40;;;1.23;;
23115;SDS011;11727;52.134;5.052;2023-04-07T13:09:42;5.70;;;1.17;;
23115;SDS011;11727;52.134;5.052;2023-04-07T13:12:08;9.15;;;2.15;;
23115;SDS011;11727;52.134;5.052;2023-04-07T13:14:35;5.72;;;1.45;;
23115;SDS011;11727;52.134;5.052;2023-04-07T13:17:05;6.00;;;1.25;;
23115;SDS011;11727;52.134;5.052;2023-04-07T13:19:32;11.93;;;1.67;;
23115;SDS011;11727;52.134;5.052;2023-04-07T13:21:57;27.52;;;2.00;;
23115;SDS011;11727;52.134;5.052;2023-04-07T13:24:23;6.60;;;1.60;;
23115;SDS011;11727;52.134;5.052;2023-04-07T13:26:49;6.40;;;1.35;;
23115;SDS011;11727;52.134;5.052;2023-04-07T13:29:15;4.50;;;1.45;;
23115;SDS011;11727;52.134;5.052;2023-04-07T13:31:41;11.20;;;1.90;;
23115;SDS011;11727;52.134;5.052;2023-04-07T13:34:09;10.40;;;2.00;;
23115;SDS011;11727;52.134;5.052;2023-04-07T13:36:35;8.38;;;2.10;;
23115;SDS011;11727;52.134;5.052;2023-04-07T13:39:00;7.20;;;1.50;;
23115;SDS011;11727;52.134;5.052;2023-04-07T13:41:26;9.55;;;2.40;;
23115;SDS011;11727;52.134;5.052;2023-04-07T13:43:52;6.55;;;1.70;;
23115;SDS011;11727;52.134;5.052;2023-04-07T13:46:17;6.47;;;1.55;;
23115;SDS011;11727;52.134;5.052;2023-04-07T13:48:44;5.43;;;1.60;;
23115;SDS011;11727;52.134;5.052;2023-04-07T13:51:09;6.97;;;2.03;;
23115;SDS011;11727;52.134;5.052;2023-04-07T13:53:35;5.22;;;1.55;;
23115;SDS011;11727;52.134;5.052;2023-04-07T13:56:01;10.18;;;2.03;;
23115;SDS011;11727;52.134;5.052;2023-04-07T13:58:27;7.47;;;1.30;;
23115;SDS011;11727;52.134;5.052;2023-04-07T14:00:53;5.97;;;1.38;;
23115;SDS011;11727;52.134;5.052;2023-04-07T14:03:23;7.97;;;1.30;;
23115;SDS011;11727;52.134;5.052;2023-04-07T14:05:48;7.38;;;1.90;;
23115;SDS011;11727;52.134;5.052;2023-04-07T14:08:14;4.88;;;1.40;;
23115;SDS011;11727;52.134;5.052;2023-04-07T14:10:42;6.15;;;1.45;;
23115;SDS011;11727;52.134;5.052;2023-04-07T14:13:07;3.60;;;1.70;;
23115;SDS011;11727;52.134;5.052;2023-04-07T14:15:33;7.75;;;2.03;;
23115;SDS011;11727;52.134;5.052;2023-04-07T14:17:59;11.57;;;2.30;;
23115;SDS011;11727;52.134;5.052;2023-04-07T14:20:24;3.97;;;1.45;;
23115;SDS011;11727;52.134;5.052;2023-04-07T14:22:50;13.32;;;1.98;;
23115;SDS011;11727;52.134;5.052;2023-04-07T14:25:16;7.63;;;2.08;;
23115;SDS011;11727;52.134;5.052;2023-04-07T14:27:42;5.03;;;1.63;;
23115;SDS011;11727;52.134;5.052;2023-04-07T14:30:08;5.80;;;1.67;;
23115;SDS011;11727;52.134;5.052;2023-04-07T14:32:34;5.68;;;1.88;;
23115;SDS011;11727;52.134;5.052;2023-04-07T14:34:59;4.75;;;1.17;;
23115;SDS011;11727;52.134;5.052;2023-04-07T14:37:26;8.80;;;1.88;;
23115;SDS011;11727;52.134;5.052;2023-04-07T14:39:52;6.20;;;1.25;;
23115;SDS011;11727;52.134;5.052;2023-04-07T14:42:18;8.63;;;1.73;;
23115;SDS011;11727;52.134;5.052;2023-04-07T14:44:44;4.20;;;1.45;;
23115;SDS011;11727;52.134;5.052;2023-04-07T14:47:10;4.70;;;1.52;;
23115;SDS011;11727;52.134;5.052;2023-04-07T14:49:36;8.05;;;1.70;;
23115;SDS011;11727;52.134;5.052;2023-04-07T14:52:02;6.90;;;1.73;;
23115;SDS011;11727;52.134;5.052;2023-04-07T14:54:27;11.40;;;1.60;;
23115;SDS011;11727;52.134;5.052;2023-04-07T14:56:53;4.47;;;1.20;;
23115;SDS011;11727;52.134;5.052;2023-04-07T14:59:19;9.55;;;1.83;;
23115;SDS011;11727;52.134;5.052;2023-04-07T15:01:45;6.75;;;1.55;;
23115;SDS011;11727;52.134;5.052;2023-04-07T15:04:10;3.28;;;1.23;;
23115;SDS011;11727;52.134;5.052;2023-04-07T15:06:39;3.03;;;1.42;;
23115;SDS011;11727;52.134;5.052;2023-04-07T15:09:05;7.43;;;1.40;;
23115;SDS011;11727;52.134;5.052;2023-04-07T15:11:31;6.55;;;1.95;;